RJAA/NRT METAR and TAF weather

Enter ICAO airport designator
Station Type Date Time Source
RJAA METAR 2022/06/27 17:30 UTC NOAA

RJAA 271730Z AUTO VRB02KT 9999 NCD 24/22 Q1011 NOSIG


Station Type Date Time Source
RJAA Decoded METAR 2022/06/27 17:30 UTC NOAA

New Tokyo Inter-National Airport, Japan (RJAA) 35-46N 140-23E 44M
Jun 27, 2022 - 01:30 PM EDT / 2022.06.27 1730 UTC
Wind: Variable at 2 MPH (2 KT):0
Visibility: greater than 7 mile(s):0
Temperature: 75 F (24 C)
Dew Point: 71 F (22 C)
Relative Humidity: 88%
Pressure (altimeter): 29.85 in. Hg (1011 hPa)
ob: RJAA 271730Z AUTO VRB02KT 9999 NCD 24/22 Q1011 NOSIG
cycle: 17

Station Type Date Time Source
RJAA TAF 2022/06/27 18:28 UTC NOAA

TAF RJAA 271705Z 2718/2900 32004KT 9999 FEW020
BECMG 2800/2802 14009KT

Example: see airport list